sensor_id;sensor_type;location;lat;lon;timestamp;P1;durP1;ratioP1;P2;durP2;ratioP2
50231;SDS011;36118;56.468;84.952;2024-02-21T00:02:16;44.17;;;15.65;;
50231;SDS011;36118;56.468;84.952;2024-02-21T00:07:19;49.08;;;16.45;;
50231;SDS011;36118;56.468;84.952;2024-02-21T00:12:22;34.60;;;12.07;;
50231;SDS011;36118;56.468;84.952;2024-02-21T00:17:25;42.30;;;13.50;;
50231;SDS011;36118;56.468;84.952;2024-02-21T00:22:28;59.30;;;18.10;;
50231;SDS011;36118;56.468;84.952;2024-02-21T00:27:34;21.63;;;10.00;;
50231;SDS011;36118;56.468;84.952;2024-02-21T00:32:37;45.65;;;15.95;;
50231;SDS011;36118;56.468;84.952;2024-02-21T00:37:41;17.60;;;7.07;;
50231;SDS011;36118;56.468;84.952;2024-02-21T00:42:45;54.42;;;17.13;;
50231;SDS011;36118;56.468;84.952;2024-02-21T00:47:49;51.20;;;15.50;;
50231;SDS011;36118;56.468;84.952;2024-02-21T00:52:54;18.52;;;6.28;;
50231;SDS011;36118;56.468;84.952;2024-02-21T00:57:57;32.92;;;12.85;;
50231;SDS011;36118;56.468;84.952;2024-02-21T01:03:00;12.15;;;4.90;;
50231;SDS011;36118;56.468;84.952;2024-02-21T01:08:04;25.77;;;12.50;;
50231;SDS011;36118;56.468;84.952;2024-02-21T01:13:07;63.88;;;23.45;;
50231;SDS011;36118;56.468;84.952;2024-02-21T01:18:11;47.83;;;17.27;;
50231;SDS011;36118;56.468;84.952;2024-02-21T01:23:15;60.50;;;20.15;;
50231;SDS011;36118;56.468;84.952;2024-02-21T01:28:18;69.93;;;21.65;;
50231;SDS011;36118;56.468;84.952;2024-02-21T01:33:24;21.00;;;9.73;;
50231;SDS011;36118;56.468;84.952;2024-02-21T01:38:28;28.92;;;12.10;;
50231;SDS011;36118;56.468;84.952;2024-02-21T01:43:32;25.27;;;9.70;;
50231;SDS011;36118;56.468;84.952;2024-02-21T01:48:35;64.80;;;19.70;;
50231;SDS011;36118;56.468;84.952;2024-02-21T01:53:42;11.77;;;4.65;;
50231;SDS011;36118;56.468;84.952;2024-02-21T01:58:45;34.78;;;14.68;;
50231;SDS011;36118;56.468;84.952;2024-02-21T02:03:51;38.20;;;13.70;;
50231;SDS011;36118;56.468;84.952;2024-02-21T02:08:55;44.67;;;15.07;;
50231;SDS011;36118;56.468;84.952;2024-02-21T02:13:58;29.52;;;9.70;;
50231;SDS011;36118;56.468;84.952;2024-02-21T02:19:01;21.70;;;10.07;;
50231;SDS011;36118;56.468;84.952;2024-02-21T02:24:06;72.30;;;25.55;;
50231;SDS011;36118;56.468;84.952;2024-02-21T02:29:09;34.22;;;12.75;;
50231;SDS011;36118;56.468;84.952;2024-02-21T02:34:13;39.63;;;16.60;;
50231;SDS011;36118;56.468;84.952;2024-02-21T02:39:17;30.52;;;8.07;;
50231;SDS011;36118;56.468;84.952;2024-02-21T02:44:20;17.48;;;8.27;;
50231;SDS011;36118;56.468;84.952;2024-02-21T02:49:24;49.15;;;14.20;;
50231;SDS011;36118;56.468;84.952;2024-02-21T02:54:26;26.23;;;10.85;;
50231;SDS011;36118;56.468;84.952;2024-02-21T02:59:29;58.65;;;17.85;;
50231;SDS011;36118;56.468;84.952;2024-02-21T03:04:33;39.45;;;14.57;;
50231;SDS011;36118;56.468;84.952;2024-02-21T03:09:39;34.60;;;12.95;;
50231;SDS011;36118;56.468;84.952;2024-02-21T03:14:42;22.42;;;11.10;;
50231;SDS011;36118;56.468;84.952;2024-02-21T03:19:46;58.78;;;18.02;;
50231;SDS011;36118;56.468;84.952;2024-02-21T03:24:51;2.38;;;1.10;;
50231;SDS011;36118;56.468;84.952;2024-02-21T03:29:54;96.75;;;30.15;;
50231;SDS011;36118;56.468;84.952;2024-02-21T03:34:58;71.80;;;23.48;;
50231;SDS011;36118;56.468;84.952;2024-02-21T03:40:00;76.85;;;23.83;;
50231;SDS011;36118;56.468;84.952;2024-02-21T03:45:05;69.43;;;25.20;;
50231;SDS011;36118;56.468;84.952;2024-02-21T03:50:08;68.47;;;24.90;;
50231;SDS011;36118;56.468;84.952;2024-02-21T03:55:12;70.03;;;21.80;;
50231;SDS011;36118;56.468;84.952;2024-02-21T04:00:16;75.38;;;28.90;;
50231;SDS011;36118;56.468;84.952;2024-02-21T04:05:19;53.03;;;17.15;;
50231;SDS011;36118;56.468;84.952;2024-02-21T04:10:22;69.50;;;23.80;;
50231;SDS011;36118;56.468;84.952;2024-02-21T04:15:26;62.42;;;21.35;;
50231;SDS011;36118;56.468;84.952;2024-02-21T04:20:29;52.65;;;17.80;;
50231;SDS011;36118;56.468;84.952;2024-02-21T04:25:32;36.70;;;15.57;;
50231;SDS011;36118;56.468;84.952;2024-02-21T04:30:36;28.70;;;8.82;;
50231;SDS011;36118;56.468;84.952;2024-02-21T04:35:40;5.07;;;2.47;;
50231;SDS011;36118;56.468;84.952;2024-02-21T04:40:43;11.13;;;5.80;;
50231;SDS011;36118;56.468;84.952;2024-02-21T04:45:48;15.38;;;7.50;;
50231;SDS011;36118;56.468;84.952;2024-02-21T04:50:52;40.58;;;12.35;;
50231;SDS011;36118;56.468;84.952;2024-02-21T04:55:55;18.42;;;8.80;;
50231;SDS011;36118;56.468;84.952;2024-02-21T05:00:58;35.40;;;13.27;;
50231;SDS011;36118;56.468;84.952;2024-02-21T05:06:02;31.50;;;11.98;;
50231;SDS011;36118;56.468;84.952;2024-02-21T05:11:06;25.48;;;9.30;;
50231;SDS011;36118;56.468;84.952;2024-02-21T05:16:10;38.10;;;10.60;;
50231;SDS011;36118;56.468;84.952;2024-02-21T05:21:14;32.28;;;9.75;;
50231;SDS011;36118;56.468;84.952;2024-02-21T05:26:20;34.40;;;10.93;;
50231;SDS011;36118;56.468;84.952;2024-02-21T05:31:25;9.65;;;4.50;;
50231;SDS011;36118;56.468;84.952;2024-02-21T05:36:29;9.48;;;3.50;;
50231;SDS011;36118;56.468;84.952;2024-02-21T05:41:33;23.08;;;8.75;;
50231;SDS011;36118;56.468;84.952;2024-02-21T05:46:36;29.52;;;11.18;;
50231;SDS011;36118;56.468;84.952;2024-02-21T05:51:41;34.03;;;11.93;;
50231;SDS011;36118;56.468;84.952;2024-02-21T05:56:44;10.52;;;4.07;;
50231;SDS011;36118;56.468;84.952;2024-02-21T06:01:57;8.80;;;2.70;;
50231;SDS011;36118;56.468;84.952;2024-02-21T06:07:06;24.83;;;7.93;;
50231;SDS011;36118;56.468;84.952;2024-02-21T06:12:09;17.67;;;7.40;;
50231;SDS011;36118;56.468;84.952;2024-02-21T06:17:12;26.92;;;8.98;;
50231;SDS011;36118;56.468;84.952;2024-02-21T06:22:16;18.88;;;4.38;;
50231;SDS011;36118;56.468;84.952;2024-02-21T06:27:19;20.48;;;7.85;;
50231;SDS011;36118;56.468;84.952;2024-02-21T06:32:23;21.73;;;7.47;;
50231;SDS011;36118;56.468;84.952;2024-02-21T06:37:28;8.95;;;3.20;;
50231;SDS011;36118;56.468;84.952;2024-02-21T06:42:31;31.10;;;8.38;;
50231;SDS011;36118;56.468;84.952;2024-02-21T06:47:35;5.53;;;2.53;;
50231;SDS011;36118;56.468;84.952;2024-02-21T06:52:39;30.25;;;7.32;;
50231;SDS011;36118;56.468;84.952;2024-02-21T06:57:43;43.22;;;10.68;;
50231;SDS011;36118;56.468;84.952;2024-02-21T07:02:46;38.20;;;8.27;;
50231;SDS011;36118;56.468;84.952;2024-02-21T07:07:51;38.80;;;12.90;;
50231;SDS011;36118;56.468;84.952;2024-02-21T07:12:54;45.20;;;14.45;;
50231;SDS011;36118;56.468;84.952;2024-02-21T07:17:59;43.90;;;13.48;;
50231;SDS011;36118;56.468;84.952;2024-02-21T07:23:03;40.53;;;12.77;;
50231;SDS011;36118;56.468;84.952;2024-02-21T07:28:07;44.75;;;14.43;;
50231;SDS011;36118;56.468;84.952;2024-02-21T07:33:12;54.33;;;18.10;;
50231;SDS011;36118;56.468;84.952;2024-02-21T07:38:15;37.13;;;16.48;;
50231;SDS011;36118;56.468;84.952;2024-02-21T07:43:20;48.40;;;17.23;;
50231;SDS011;36118;56.468;84.952;2024-02-21T07:48:27;35.38;;;14.18;;
50231;SDS011;36118;56.468;84.952;2024-02-21T07:53:36;49.60;;;17.98;;
50231;SDS011;36118;56.468;84.952;2024-02-21T07:58:39;51.70;;;22.90;;
50231;SDS011;36118;56.468;84.952;2024-02-21T08:03:43;64.13;;;24.75;;
50231;SDS011;36118;56.468;84.952;2024-02-21T08:08:47;52.47;;;21.55;;
50231;SDS011;36118;56.468;84.952;2024-02-21T08:13:50;41.35;;;14.27;;
50231;SDS011;36118;56.468;84.952;2024-02-21T08:23:57;25.90;;;9.63;;
50231;SDS011;36118;56.468;84.952;2024-02-21T08:28:59;26.55;;;10.95;;
50231;SDS011;36118;56.468;84.952;2024-02-21T08:34:03;31.88;;;11.75;;
50231;SDS011;36118;56.468;84.952;2024-02-21T08:39:07;39.85;;;15.10;;
50231;SDS011;36118;56.468;84.952;2024-02-21T08:44:12;35.45;;;12.95;;
50231;SDS011;36118;56.468;84.952;2024-02-21T08:49:15;34.92;;;13.75;;
50231;SDS011;36118;56.468;84.952;2024-02-21T08:59:22;25.52;;;10.98;;
50231;SDS011;36118;56.468;84.952;2024-02-21T09:04:26;36.95;;;12.32;;
50231;SDS011;36118;56.468;84.952;2024-02-21T09:09:29;39.35;;;12.55;;
50231;SDS011;36118;56.468;84.952;2024-02-21T09:14:32;28.45;;;9.82;;
50231;SDS011;36118;56.468;84.952;2024-02-21T09:19:37;28.25;;;10.90;;
50231;SDS011;36118;56.468;84.952;2024-02-21T09:24:40;32.05;;;10.73;;
50231;SDS011;36118;56.468;84.952;2024-02-21T09:29:43;30.23;;;10.48;;
50231;SDS011;36118;56.468;84.952;2024-02-21T09:34:46;39.88;;;14.57;;
50231;SDS011;36118;56.468;84.952;2024-02-21T09:39:53;42.67;;;13.88;;
50231;SDS011;36118;56.468;84.952;2024-02-21T09:44:57;45.08;;;15.13;;
50231;SDS011;36118;56.468;84.952;2024-02-21T09:50:01;46.83;;;16.10;;
50231;SDS011;36118;56.468;84.952;2024-02-21T09:55:07;44.22;;;15.15;;
50231;SDS011;36118;56.468;84.952;2024-02-21T10:00:13;33.35;;;12.02;;
50231;SDS011;36118;56.468;84.952;2024-02-21T10:05:25;22.73;;;8.18;;
50231;SDS011;36118;56.468;84.952;2024-02-21T10:10:40;23.13;;;7.25;;
50231;SDS011;36118;56.468;84.952;2024-02-21T10:16:00;23.92;;;7.18;;
50231;SDS011;36118;56.468;84.952;2024-02-21T10:21:13;18.00;;;6.57;;
50231;SDS011;36118;56.468;84.952;2024-02-21T10:26:17;19.70;;;7.53;;
50231;SDS011;36118;56.468;84.952;2024-02-21T10:31:22;15.35;;;4.97;;
50231;SDS011;36118;56.468;84.952;2024-02-21T10:36:27;13.13;;;3.95;;
50231;SDS011;36118;56.468;84.952;2024-02-21T10:46:34;14.77;;;4.95;;
50231;SDS011;36118;56.468;84.952;2024-02-21T10:51:42;13.70;;;3.90;;
50231;SDS011;36118;56.468;84.952;2024-02-21T10:56:46;7.70;;;3.35;;
50231;SDS011;36118;56.468;84.952;2024-02-21T11:01:52;11.52;;;3.95;;
50231;SDS011;36118;56.468;84.952;2024-02-21T11:07:00;11.43;;;2.72;;
50231;SDS011;36118;56.468;84.952;2024-02-21T11:12:06;9.38;;;3.38;;
50231;SDS011;36118;56.468;84.952;2024-02-21T11:17:17;12.68;;;3.20;;
50231;SDS011;36118;56.468;84.952;2024-02-21T11:22:24;11.95;;;4.45;;
50231;SDS011;36118;56.468;84.952;2024-02-21T11:27:33;7.70;;;2.95;;
50231;SDS011;36118;56.468;84.952;2024-02-21T11:32:36;12.00;;;4.00;;
50231;SDS011;36118;56.468;84.952;2024-02-21T11:37:39;11.40;;;4.43;;
50231;SDS011;36118;56.468;84.952;2024-02-21T11:42:45;11.88;;;3.75;;
50231;SDS011;36118;56.468;84.952;2024-02-21T11:47:49;10.95;;;3.42;;
50231;SDS011;36118;56.468;84.952;2024-02-21T11:52:56;8.93;;;3.33;;
50231;SDS011;36118;56.468;84.952;2024-02-21T11:58:00;5.25;;;2.28;;
50231;SDS011;36118;56.468;84.952;2024-02-21T12:03:07;11.38;;;4.28;;
50231;SDS011;36118;56.468;84.952;2024-02-21T12:08:10;9.40;;;2.50;;
50231;SDS011;36118;56.468;84.952;2024-02-21T12:13:13;7.45;;;2.92;;
50231;SDS011;36118;56.468;84.952;2024-02-21T12:18:16;4.95;;;2.25;;
50231;SDS011;36118;56.468;84.952;2024-02-21T12:23:20;9.65;;;3.45;;
50231;SDS011;36118;56.468;84.952;2024-02-21T12:28:23;10.73;;;3.75;;
50231;SDS011;36118;56.468;84.952;2024-02-21T12:33:27;5.85;;;2.10;;
50231;SDS011;36118;56.468;84.952;2024-02-21T12:38:30;12.75;;;4.60;;
50231;SDS011;36118;56.468;84.952;2024-02-21T12:43:33;8.07;;;2.75;;
50231;SDS011;36118;56.468;84.952;2024-02-21T12:48:38;29.70;;;10.73;;
50231;SDS011;36118;56.468;84.952;2024-02-21T12:53:42;28.08;;;10.60;;
50231;SDS011;36118;56.468;84.952;2024-02-21T12:58:46;36.47;;;11.82;;
50231;SDS011;36118;56.468;84.952;2024-02-21T13:03:50;46.10;;;14.18;;
50231;SDS011;36118;56.468;84.952;2024-02-21T13:08:54;49.72;;;14.70;;
50231;SDS011;36118;56.468;84.952;2024-02-21T13:13:57;38.30;;;13.20;;
50231;SDS011;36118;56.468;84.952;2024-02-21T13:19:01;47.65;;;14.68;;
50231;SDS011;36118;56.468;84.952;2024-02-21T13:24:06;38.58;;;13.02;;
50231;SDS011;36118;56.468;84.952;2024-02-21T13:34:13;52.40;;;12.80;;
50231;SDS011;36118;56.468;84.952;2024-02-21T13:39:20;30.25;;;10.80;;
50231;SDS011;36118;56.468;84.952;2024-02-21T13:44:24;29.63;;;10.75;;
50231;SDS011;36118;56.468;84.952;2024-02-21T13:49:28;37.90;;;13.10;;
50231;SDS011;36118;56.468;84.952;2024-02-21T13:54:32;34.10;;;12.43;;
50231;SDS011;36118;56.468;84.952;2024-02-21T14:09:42;37.38;;;11.23;;
50231;SDS011;36118;56.468;84.952;2024-02-21T14:14:45;39.05;;;12.90;;
50231;SDS011;36118;56.468;84.952;2024-02-21T14:19:49;39.78;;;14.68;;
50231;SDS011;36118;56.468;84.952;2024-02-21T14:24:52;49.17;;;17.83;;
50231;SDS011;36118;56.468;84.952;2024-02-21T14:29:56;54.20;;;18.92;;
50231;SDS011;36118;56.468;84.952;2024-02-21T14:34:59;57.90;;;22.60;;
50231;SDS011;36118;56.468;84.952;2024-02-21T14:40:07;67.20;;;24.42;;
50231;SDS011;36118;56.468;84.952;2024-02-21T14:45:11;79.05;;;24.95;;
50231;SDS011;36118;56.468;84.952;2024-02-21T14:50:16;72.05;;;24.10;;
50231;SDS011;36118;56.468;84.952;2024-02-21T14:55:20;74.43;;;26.48;;
50231;SDS011;36118;56.468;84.952;2024-02-21T15:00:25;67.20;;;23.60;;
50231;SDS011;36118;56.468;84.952;2024-02-21T15:05:33;56.10;;;21.35;;
50231;SDS011;36118;56.468;84.952;2024-02-21T15:10:40;64.38;;;23.80;;
50231;SDS011;36118;56.468;84.952;2024-02-21T15:15:44;66.32;;;20.88;;
50231;SDS011;36118;56.468;84.952;2024-02-21T15:20:50;54.90;;;18.58;;
50231;SDS011;36118;56.468;84.952;2024-02-21T15:25:54;65.18;;;21.52;;
50231;SDS011;36118;56.468;84.952;2024-02-21T15:30:58;61.90;;;23.25;;
50231;SDS011;36118;56.468;84.952;2024-02-21T15:36:01;82.70;;;30.15;;
50231;SDS011;36118;56.468;84.952;2024-02-21T15:46:10;67.20;;;20.60;;
50231;SDS011;36118;56.468;84.952;2024-02-21T15:51:15;45.72;;;14.75;;
50231;SDS011;36118;56.468;84.952;2024-02-21T15:56:18;77.15;;;26.40;;
50231;SDS011;36118;56.468;84.952;2024-02-21T16:01:21;78.57;;;28.65;;
50231;SDS011;36118;56.468;84.952;2024-02-21T16:06:26;86.20;;;28.77;;
50231;SDS011;36118;56.468;84.952;2024-02-21T16:11:29;75.53;;;24.05;;
50231;SDS011;36118;56.468;84.952;2024-02-21T16:21:37;43.00;;;12.73;;
50231;SDS011;36118;56.468;84.952;2024-02-21T16:32:15;23.83;;;8.43;;
50231;SDS011;36118;56.468;84.952;2024-02-21T16:38:21;19.33;;;7.97;;
50231;SDS011;36118;56.468;84.952;2024-02-21T16:43:26;35.53;;;11.27;;
50231;SDS011;36118;56.468;84.952;2024-02-21T16:48:30;22.08;;;7.47;;
50231;SDS011;36118;56.468;84.952;2024-02-21T16:53:33;25.85;;;8.57;;
50231;SDS011;36118;56.468;84.952;2024-02-21T16:58:36;26.38;;;8.20;;
50231;SDS011;36118;56.468;84.952;2024-02-21T17:03:40;26.33;;;8.20;;
50231;SDS011;36118;56.468;84.952;2024-02-21T17:08:47;24.70;;;9.10;;
50231;SDS011;36118;56.468;84.952;2024-02-21T17:13:50;28.83;;;9.52;;
50231;SDS011;36118;56.468;84.952;2024-02-21T17:18:54;29.25;;;9.55;;
50231;SDS011;36118;56.468;84.952;2024-02-21T17:29:00;33.05;;;11.35;;
50231;SDS011;36118;56.468;84.952;2024-02-21T17:34:18;36.65;;;11.23;;
50231;SDS011;36118;56.468;84.952;2024-02-21T17:39:23;35.50;;;12.50;;
50231;SDS011;36118;56.468;84.952;2024-02-21T17:44:27;32.47;;;12.73;;
50231;SDS011;36118;56.468;84.952;2024-02-21T17:49:31;41.28;;;15.52;;
50231;SDS011;36118;56.468;84.952;2024-02-21T17:54:36;29.98;;;10.98;;
50231;SDS011;36118;56.468;84.952;2024-02-21T17:59:41;32.35;;;12.38;;
50231;SDS011;36118;56.468;84.952;2024-02-21T18:04:45;33.13;;;11.88;;
50231;SDS011;36118;56.468;84.952;2024-02-21T18:09:50;42.83;;;13.70;;
50231;SDS011;36118;56.468;84.952;2024-02-21T18:14:53;39.95;;;15.15;;
50231;SDS011;36118;56.468;84.952;2024-02-21T18:19:59;45.75;;;14.07;;
50231;SDS011;36118;56.468;84.952;2024-02-21T18:25:07;48.25;;;18.23;;
50231;SDS011;36118;56.468;84.952;2024-02-21T18:30:13;40.65;;;14.80;;
50231;SDS011;36118;56.468;84.952;2024-02-21T18:35:17;36.78;;;13.57;;
50231;SDS011;36118;56.468;84.952;2024-02-21T18:40:21;33.88;;;11.93;;
50231;SDS011;36118;56.468;84.952;2024-02-21T18:50:27;29.35;;;11.35;;
50231;SDS011;36118;56.468;84.952;2024-02-21T18:55:30;38.97;;;11.48;;
50231;SDS011;36118;56.468;84.952;2024-02-21T19:05:36;41.10;;;14.35;;
50231;SDS011;36118;56.468;84.952;2024-02-21T19:15:42;34.63;;;11.82;;
50231;SDS011;36118;56.468;84.952;2024-02-21T19:20:45;37.28;;;13.73;;
50231;SDS011;36118;56.468;84.952;2024-02-21T19:25:49;31.85;;;12.57;;
50231;SDS011;36118;56.468;84.952;2024-02-21T19:30:52;40.25;;;15.65;;
50231;SDS011;36118;56.468;84.952;2024-02-21T19:35:56;37.90;;;14.80;;
50231;SDS011;36118;56.468;84.952;2024-02-21T19:46:03;34.53;;;12.95;;
50231;SDS011;36118;56.468;84.952;2024-02-21T19:51:07;36.05;;;14.50;;
50231;SDS011;36118;56.468;84.952;2024-02-21T19:56:11;31.65;;;11.30;;
50231;SDS011;36118;56.468;84.952;2024-02-21T20:01:17;39.33;;;11.90;;
50231;SDS011;36118;56.468;84.952;2024-02-21T20:06:23;31.05;;;10.77;;
50231;SDS011;36118;56.468;84.952;2024-02-21T20:11:27;33.13;;;13.40;;
50231;SDS011;36118;56.468;84.952;2024-02-21T20:16:33;41.10;;;13.13;;
50231;SDS011;36118;56.468;84.952;2024-02-21T20:21:38;27.85;;;9.32;;
50231;SDS011;36118;56.468;84.952;2024-02-21T20:26:44;30.00;;;10.10;;
50231;SDS011;36118;56.468;84.952;2024-02-21T20:31:48;33.00;;;11.55;;
50231;SDS011;36118;56.468;84.952;2024-02-21T20:36:51;31.20;;;11.32;;
50231;SDS011;36118;56.468;84.952;2024-02-21T20:41:54;30.77;;;11.23;;
50231;SDS011;36118;56.468;84.952;2024-02-21T20:46:59;36.20;;;13.00;;
50231;SDS011;36118;56.468;84.952;2024-02-21T20:52:04;33.78;;;12.95;;
50231;SDS011;36118;56.468;84.952;2024-02-21T20:57:07;28.23;;;10.52;;
50231;SDS011;36118;56.468;84.952;2024-02-21T21:02:10;28.45;;;10.48;;
50231;SDS011;36118;56.468;84.952;2024-02-21T21:07:13;27.80;;;10.20;;
50231;SDS011;36118;56.468;84.952;2024-02-21T21:12:16;37.08;;;15.65;;
50231;SDS011;36118;56.468;84.952;2024-02-21T21:17:20;31.17;;;11.40;;
50231;SDS011;36118;56.468;84.952;2024-02-21T21:22:23;24.27;;;9.57;;
50231;SDS011;36118;56.468;84.952;2024-02-21T21:27:27;35.80;;;13.80;;
50231;SDS011;36118;56.468;84.952;2024-02-21T21:32:30;22.08;;;8.23;;
50231;SDS011;36118;56.468;84.952;2024-02-21T21:37:33;25.80;;;9.80;;
50231;SDS011;36118;56.468;84.952;2024-02-21T21:42:36;22.98;;;8.75;;
50231;SDS011;36118;56.468;84.952;2024-02-21T21:47:39;34.03;;;13.13;;
50231;SDS011;36118;56.468;84.952;2024-02-21T21:52:45;30.58;;;10.50;;
50231;SDS011;36118;56.468;84.952;2024-02-21T21:57:48;34.70;;;13.88;;
50231;SDS011;36118;56.468;84.952;2024-02-21T22:02:52;34.05;;;12.18;;
50231;SDS011;36118;56.468;84.952;2024-02-21T22:07:55;43.30;;;15.27;;
50231;SDS011;36118;56.468;84.952;2024-02-21T22:13:01;24.90;;;9.13;;
50231;SDS011;36118;56.468;84.952;2024-02-21T22:18:04;39.08;;;14.07;;
50231;SDS011;36118;56.468;84.952;2024-02-21T22:23:07;31.48;;;9.75;;
50231;SDS011;36118;56.468;84.952;2024-02-21T22:28:12;28.92;;;11.48;;
50231;SDS011;36118;56.468;84.952;2024-02-21T22:33:15;30.65;;;9.73;;
50231;SDS011;36118;56.468;84.952;2024-02-21T22:38:19;23.08;;;6.68;;
50231;SDS011;36118;56.468;84.952;2024-02-21T22:43:23;29.70;;;9.30;;
50231;SDS011;36118;56.468;84.952;2024-02-21T22:48:26;32.67;;;10.55;;
50231;SDS011;36118;56.468;84.952;2024-02-21T22:53:29;25.83;;;8.73;;
50231;SDS011;36118;56.468;84.952;2024-02-21T22:58:32;40.88;;;15.73;;
50231;SDS011;36118;56.468;84.952;2024-02-21T23:03:35;30.13;;;12.68;;
50231;SDS011;36118;56.468;84.952;2024-02-21T23:08:38;27.63;;;9.73;;
50231;SDS011;36118;56.468;84.952;2024-02-21T23:13:41;25.50;;;11.13;;
50231;SDS011;36118;56.468;84.952;2024-02-21T23:18:44;43.05;;;18.25;;
50231;SDS011;36118;56.468;84.952;2024-02-21T23:23:47;37.78;;;15.02;;
50231;SDS011;36118;56.468;84.952;2024-02-21T23:28:50;35.42;;;14.63;;
50231;SDS011;36118;56.468;84.952;2024-02-21T23:33:53;49.05;;;19.02;;
50231;SDS011;36118;56.468;84.952;2024-02-21T23:38:57;26.17;;;8.15;;
50231;SDS011;36118;56.468;84.952;2024-02-21T23:43:59;40.30;;;16.30;;
50231;SDS011;36118;56.468;84.952;2024-02-21T23:49:03;42.92;;;15.80;;
50231;SDS011;36118;56.468;84.952;2024-02-21T23:54:06;23.70;;;7.00;;
50231;SDS011;36118;56.468;84.952;2024-02-21T23:59:09;22.10;;;8.57;;
